sensor_id;sensor_type;location;lat;lon;timestamp;P1;durP1;ratioP1;P2;durP2;ratioP2
4309;SDS011;2168;53.576;9.980;2024-03-23T00:55:32;0.10;;;0.10;;
4309;SDS011;2168;53.576;9.980;2024-03-23T00:57:57;0.20;;;0.20;;
4309;SDS011;2168;53.576;9.980;2024-03-23T01:00:23;0.10;;;0.10;;
4309;SDS011;2168;53.576;9.980;2024-03-23T01:02:48;0.20;;;0.20;;
4309;SDS011;2168;53.576;9.980;2024-03-23T01:05:13;0.10;;;0.10;;
4309;SDS011;2168;53.576;9.980;2024-03-23T01:07:38;0.20;;;0.20;;
4309;SDS011;2168;53.576;9.980;2024-03-23T01:10:03;0.17;;;0.17;;
4309;SDS011;2168;53.576;9.980;2024-03-23T01:12:29;0.60;;;0.60;;
4309;SDS011;2168;53.576;9.980;2024-03-23T01:14:54;0.20;;;0.20;;
4309;SDS011;2168;53.576;9.980;2024-03-23T01:17:19;0.10;;;0.10;;
4309;SDS011;2168;53.576;9.980;2024-03-23T01:19:45;0.20;;;0.20;;
4309;SDS011;2168;53.576;9.980;2024-03-23T01:22:10;0.20;;;0.20;;
4309;SDS011;2168;53.576;9.980;2024-03-23T01:24:35;0.20;;;0.20;;
4309;SDS011;2168;53.576;9.980;2024-03-23T01:27:01;0.20;;;0.20;;
4309;SDS011;2168;53.576;9.980;2024-03-23T01:29:26;0.20;;;0.20;;
4309;SDS011;2168;53.576;9.980;2024-03-23T01:31:51;0.20;;;0.20;;
4309;SDS011;2168;53.576;9.980;2024-03-23T01:34:16;0.13;;;0.13;;
4309;SDS011;2168;53.576;9.980;2024-03-23T01:36:42;0.20;;;0.20;;
4309;SDS011;2168;53.576;9.980;2024-03-23T01:39:07;0.30;;;0.30;;
4309;SDS011;2168;53.576;9.980;2024-03-23T01:41:34;0.20;;;0.20;;
4309;SDS011;2168;53.576;9.980;2024-03-23T01:44:00;0.20;;;0.20;;
4309;SDS011;2168;53.576;9.980;2024-03-23T01:46:29;0.20;;;0.20;;
4309;SDS011;2168;53.576;9.980;2024-03-23T01:48:54;0.20;;;0.20;;
4309;SDS011;2168;53.576;9.980;2024-03-23T01:51:20;0.20;;;0.20;;
4309;SDS011;2168;53.576;9.980;2024-03-23T01:53:45;0.20;;;0.20;;
4309;SDS011;2168;53.576;9.980;2024-03-23T01:56:11;0.20;;;0.20;;
4309;SDS011;2168;53.576;9.980;2024-03-23T01:58:38;0.20;;;0.20;;
4309;SDS011;2168;53.576;9.980;2024-03-23T02:01:03;0.20;;;0.20;;
4309;SDS011;2168;53.576;9.980;2024-03-23T02:03:29;0.20;;;0.20;;
4309;SDS011;2168;53.576;9.980;2024-03-23T02:05:54;0.20;;;0.20;;
4309;SDS011;2168;53.576;9.980;2024-03-23T02:08:21;0.30;;;0.30;;
4309;SDS011;2168;53.576;9.980;2024-03-23T02:10:48;0.20;;;0.20;;
4309;SDS011;2168;53.576;9.980;2024-03-23T02:13:14;0.27;;;0.27;;
4309;SDS011;2168;53.576;9.980;2024-03-23T02:15:39;0.20;;;0.20;;
4309;SDS011;2168;53.576;9.980;2024-03-23T02:18:04;0.20;;;0.20;;
4309;SDS011;2168;53.576;9.980;2024-03-23T02:20:30;0.20;;;0.20;;
4309;SDS011;2168;53.576;9.980;2024-03-23T02:22:55;0.20;;;0.20;;
4309;SDS011;2168;53.576;9.980;2024-03-23T02:25:20;0.20;;;0.20;;
4309;SDS011;2168;53.576;9.980;2024-03-23T02:27:45;0.20;;;0.20;;
4309;SDS011;2168;53.576;9.980;2024-03-23T02:30:10;0.20;;;0.20;;
4309;SDS011;2168;53.576;9.980;2024-03-23T02:32:36;0.20;;;0.20;;
4309;SDS011;2168;53.576;9.980;2024-03-23T02:35:01;0.23;;;0.23;;
4309;SDS011;2168;53.576;9.980;2024-03-23T02:37:26;0.20;;;0.20;;
4309;SDS011;2168;53.576;9.980;2024-03-23T02:39:51;0.20;;;0.20;;
4309;SDS011;2168;53.576;9.980;2024-03-23T02:42:17;0.30;;;0.30;;
4309;SDS011;2168;53.576;9.980;2024-03-23T02:44:43;0.30;;;0.30;;
4309;SDS011;2168;53.576;9.980;2024-03-23T02:47:08;0.20;;;0.20;;
4309;SDS011;2168;53.576;9.980;2024-03-23T02:49:33;0.10;;;0.10;;
4309;SDS011;2168;53.576;9.980;2024-03-23T02:51:58;0.30;;;0.30;;
4309;SDS011;2168;53.576;9.980;2024-03-23T02:54:23;0.20;;;0.20;;
4309;SDS011;2168;53.576;9.980;2024-03-23T02:56:49;0.20;;;0.20;;
4309;SDS011;2168;53.576;9.980;2024-03-23T02:59:14;0.10;;;0.10;;
4309;SDS011;2168;53.576;9.980;2024-03-23T03:01:40;0.20;;;0.20;;
4309;SDS011;2168;53.576;9.980;2024-03-23T03:04:05;0.20;;;0.20;;
4309;SDS011;2168;53.576;9.980;2024-03-23T03:06:30;0.10;;;0.10;;
4309;SDS011;2168;53.576;9.980;2024-03-23T03:08:56;0.20;;;0.20;;
4309;SDS011;2168;53.576;9.980;2024-03-23T03:11:21;0.20;;;0.20;;
4309;SDS011;2168;53.576;9.980;2024-03-23T03:13:46;0.20;;;0.20;;
4309;SDS011;2168;53.576;9.980;2024-03-23T03:16:12;0.20;;;0.20;;
4309;SDS011;2168;53.576;9.980;2024-03-23T03:18:37;0.20;;;0.20;;
4309;SDS011;2168;53.576;9.980;2024-03-23T03:21:03;0.20;;;0.20;;
4309;SDS011;2168;53.576;9.980;2024-03-23T03:23:30;0.20;;;0.20;;
4309;SDS011;2168;53.576;9.980;2024-03-23T03:25:55;0.20;;;0.20;;
4309;SDS011;2168;53.576;9.980;2024-03-23T03:28:20;0.20;;;0.20;;
4309;SDS011;2168;53.576;9.980;2024-03-23T03:30:46;0.20;;;0.20;;
4309;SDS011;2168;53.576;9.980;2024-03-23T03:33:11;0.30;;;0.30;;
4309;SDS011;2168;53.576;9.980;2024-03-23T03:35:36;0.20;;;0.20;;
4309;SDS011;2168;53.576;9.980;2024-03-23T03:38:02;0.30;;;0.30;;
4309;SDS011;2168;53.576;9.980;2024-03-23T03:40:28;0.30;;;0.30;;
4309;SDS011;2168;53.576;9.980;2024-03-23T03:42:53;0.20;;;0.20;;
4309;SDS011;2168;53.576;9.980;2024-03-23T03:45:18;0.20;;;0.20;;
4309;SDS011;2168;53.576;9.980;2024-03-23T03:47:43;0.20;;;0.20;;
4309;SDS011;2168;53.576;9.980;2024-03-23T03:50:10;0.10;;;0.10;;
4309;SDS011;2168;53.576;9.980;2024-03-23T03:52:35;0.20;;;0.20;;
4309;SDS011;2168;53.576;9.980;2024-03-23T03:55:04;0.20;;;0.20;;
4309;SDS011;2168;53.576;9.980;2024-03-23T03:57:36;0.20;;;0.20;;
4309;SDS011;2168;53.576;9.980;2024-03-23T04:00:01;0.20;;;0.20;;
4309;SDS011;2168;53.576;9.980;2024-03-23T04:02:26;0.30;;;0.30;;
4309;SDS011;2168;53.576;9.980;2024-03-23T04:04:51;0.27;;;0.27;;
4309;SDS011;2168;53.576;9.980;2024-03-23T04:07:17;0.30;;;0.30;;
4309;SDS011;2168;53.576;9.980;2024-03-23T04:09:43;0.20;;;0.20;;
4309;SDS011;2168;53.576;9.980;2024-03-23T04:12:08;0.20;;;0.20;;
4309;SDS011;2168;53.576;9.980;2024-03-23T04:14:34;0.20;;;0.20;;
4309;SDS011;2168;53.576;9.980;2024-03-23T04:16:59;0.20;;;0.20;;
4309;SDS011;2168;53.576;9.980;2024-03-23T04:19:24;0.30;;;0.30;;
4309;SDS011;2168;53.576;9.980;2024-03-23T04:21:49;0.30;;;0.30;;
4309;SDS011;2168;53.576;9.980;2024-03-23T04:24:15;0.20;;;0.20;;
4309;SDS011;2168;53.576;9.980;2024-03-23T04:26:41;0.20;;;0.20;;
4309;SDS011;2168;53.576;9.980;2024-03-23T04:29:06;0.20;;;0.20;;
4309;SDS011;2168;53.576;9.980;2024-03-23T04:31:32;0.20;;;0.20;;
4309;SDS011;2168;53.576;9.980;2024-03-23T04:33:59;0.20;;;0.20;;
4309;SDS011;2168;53.576;9.980;2024-03-23T04:36:24;0.20;;;0.20;;
4309;SDS011;2168;53.576;9.980;2024-03-23T04:38:49;0.20;;;0.20;;
4309;SDS011;2168;53.576;9.980;2024-03-23T04:41:17;0.20;;;0.20;;
4309;SDS011;2168;53.576;9.980;2024-03-23T04:43:42;0.20;;;0.20;;
4309;SDS011;2168;53.576;9.980;2024-03-23T04:46:07;0.20;;;0.20;;
4309;SDS011;2168;53.576;9.980;2024-03-23T04:48:33;0.20;;;0.20;;
4309;SDS011;2168;53.576;9.980;2024-03-23T04:50:58;0.20;;;0.20;;
4309;SDS011;2168;53.576;9.980;2024-03-23T04:53:23;0.20;;;0.20;;
4309;SDS011;2168;53.576;9.980;2024-03-23T04:55:53;0.20;;;0.20;;
4309;SDS011;2168;53.576;9.980;2024-03-23T04:58:18;0.10;;;0.10;;
4309;SDS011;2168;53.576;9.980;2024-03-23T05:00:43;0.20;;;0.20;;
4309;SDS011;2168;53.576;9.980;2024-03-23T05:03:08;0.20;;;0.20;;
4309;SDS011;2168;53.576;9.980;2024-03-23T05:05:34;0.20;;;0.20;;
4309;SDS011;2168;53.576;9.980;2024-03-23T05:07:59;0.20;;;0.20;;
4309;SDS011;2168;53.576;9.980;2024-03-23T05:10:24;0.20;;;0.20;;
4309;SDS011;2168;53.576;9.980;2024-03-23T05:12:50;0.20;;;0.20;;
4309;SDS011;2168;53.576;9.980;2024-03-23T05:15:15;0.10;;;0.10;;
4309;SDS011;2168;53.576;9.980;2024-03-23T05:17:40;0.20;;;0.20;;
4309;SDS011;2168;53.576;9.980;2024-03-23T05:20:06;0.20;;;0.20;;
4309;SDS011;2168;53.576;9.980;2024-03-23T05:22:35;0.20;;;0.20;;
4309;SDS011;2168;53.576;9.980;2024-03-23T05:25:00;0.20;;;0.20;;
4309;SDS011;2168;53.576;9.980;2024-03-23T05:27:25;0.13;;;0.13;;
4309;SDS011;2168;53.576;9.980;2024-03-23T05:29:51;0.20;;;0.20;;
4309;SDS011;2168;53.576;9.980;2024-03-23T05:32:16;0.20;;;0.20;;
4309;SDS011;2168;53.576;9.980;2024-03-23T05:34:41;0.20;;;0.20;;
4309;SDS011;2168;53.576;9.980;2024-03-23T05:37:06;0.10;;;0.10;;
4309;SDS011;2168;53.576;9.980;2024-03-23T05:39:31;0.40;;;0.40;;
4309;SDS011;2168;53.576;9.980;2024-03-23T05:41:57;0.20;;;0.20;;
4309;SDS011;2168;53.576;9.980;2024-03-23T05:44:22;0.10;;;0.10;;
4309;SDS011;2168;53.576;9.980;2024-03-23T05:46:47;0.20;;;0.20;;
4309;SDS011;2168;53.576;9.980;2024-03-23T05:49:13;0.20;;;0.20;;
4309;SDS011;2168;53.576;9.980;2024-03-23T05:51:39;0.20;;;0.20;;
4309;SDS011;2168;53.576;9.980;2024-03-23T05:54:04;0.20;;;0.20;;
4309;SDS011;2168;53.576;9.980;2024-03-23T05:56:29;0.20;;;0.20;;
4309;SDS011;2168;53.576;9.980;2024-03-23T05:58:55;0.17;;;0.17;;
4309;SDS011;2168;53.576;9.980;2024-03-23T06:01:20;0.10;;;0.10;;
4309;SDS011;2168;53.576;9.980;2024-03-23T06:03:45;0.20;;;0.20;;
4309;SDS011;2168;53.576;9.980;2024-03-23T06:06:11;0.20;;;0.20;;
4309;SDS011;2168;53.576;9.980;2024-03-23T06:08:38;0.20;;;0.20;;
4309;SDS011;2168;53.576;9.980;2024-03-23T06:11:03;0.17;;;0.17;;
4309;SDS011;2168;53.576;9.980;2024-03-23T06:13:29;0.20;;;0.20;;
4309;SDS011;2168;53.576;9.980;2024-03-23T06:15:55;0.20;;;0.20;;
4309;SDS011;2168;53.576;9.980;2024-03-23T06:18:20;0.13;;;0.13;;
4309;SDS011;2168;53.576;9.980;2024-03-23T06:20:46;0.20;;;0.20;;
4309;SDS011;2168;53.576;9.980;2024-03-23T06:23:11;0.13;;;0.13;;
4309;SDS011;2168;53.576;9.980;2024-03-23T06:25:37;0.10;;;0.10;;
4309;SDS011;2168;53.576;9.980;2024-03-23T06:28:03;0.10;;;0.10;;
4309;SDS011;2168;53.576;9.980;2024-03-23T06:30:29;0.30;;;0.30;;
4309;SDS011;2168;53.576;9.980;2024-03-23T06:32:54;0.20;;;0.20;;
4309;SDS011;2168;53.576;9.980;2024-03-23T06:35:19;0.10;;;0.10;;
4309;SDS011;2168;53.576;9.980;2024-03-23T06:37:45;0.20;;;0.20;;
4309;SDS011;2168;53.576;9.980;2024-03-23T06:40:10;0.20;;;0.20;;
4309;SDS011;2168;53.576;9.980;2024-03-23T06:42:36;0.10;;;0.10;;
4309;SDS011;2168;53.576;9.980;2024-03-23T06:45:01;0.20;;;0.20;;
4309;SDS011;2168;53.576;9.980;2024-03-23T06:47:27;0.10;;;0.10;;
4309;SDS011;2168;53.576;9.980;2024-03-23T06:49:52;0.10;;;0.10;;
4309;SDS011;2168;53.576;9.980;2024-03-23T06:52:17;0.20;;;0.20;;
4309;SDS011;2168;53.576;9.980;2024-03-23T06:54:43;0.30;;;0.30;;
4309;SDS011;2168;53.576;9.980;2024-03-23T06:57:10;0.10;;;0.10;;
4309;SDS011;2168;53.576;9.980;2024-03-23T06:59:36;0.20;;;0.20;;
4309;SDS011;2168;53.576;9.980;2024-03-23T07:02:01;0.10;;;0.10;;
4309;SDS011;2168;53.576;9.980;2024-03-23T07:04:27;0.20;;;0.20;;
4309;SDS011;2168;53.576;9.980;2024-03-23T07:06:52;0.10;;;0.10;;
4309;SDS011;2168;53.576;9.980;2024-03-23T07:09:17;0.20;;;0.20;;
4309;SDS011;2168;53.576;9.980;2024-03-23T07:11:42;0.20;;;0.20;;
4309;SDS011;2168;53.576;9.980;2024-03-23T07:14:08;0.20;;;0.20;;
4309;SDS011;2168;53.576;9.980;2024-03-23T07:16:33;0.23;;;0.23;;
4309;SDS011;2168;53.576;9.980;2024-03-23T07:18:58;0.30;;;0.30;;
4309;SDS011;2168;53.576;9.980;2024-03-23T07:21:24;0.30;;;0.30;;
4309;SDS011;2168;53.576;9.980;2024-03-23T07:23:49;0.40;;;0.40;;
4309;SDS011;2168;53.576;9.980;2024-03-23T07:26:14;0.50;;;0.50;;
4309;SDS011;2168;53.576;9.980;2024-03-23T07:28:40;0.50;;;0.50;;
4309;SDS011;2168;53.576;9.980;2024-03-23T07:31:11;0.70;;;0.70;;
4309;SDS011;2168;53.576;9.980;2024-03-23T07:33:37;0.80;;;0.80;;
4309;SDS011;2168;53.576;9.980;2024-03-23T07:36:05;1.10;;;1.10;;
4309;SDS011;2168;53.576;9.980;2024-03-23T07:38:31;0.67;;;0.67;;
4309;SDS011;2168;53.576;9.980;2024-03-23T07:41:03;0.60;;;0.60;;
4309;SDS011;2168;53.576;9.980;2024-03-23T07:43:29;0.90;;;0.90;;
4309;SDS011;2168;53.576;9.980;2024-03-23T07:45:54;0.70;;;0.70;;
4309;SDS011;2168;53.576;9.980;2024-03-23T07:48:20;0.80;;;0.80;;
4309;SDS011;2168;53.576;9.980;2024-03-23T07:50:55;0.80;;;0.80;;
4309;SDS011;2168;53.576;9.980;2024-03-23T07:53:20;0.80;;;0.80;;
4309;SDS011;2168;53.576;9.980;2024-03-23T07:55:52;0.80;;;0.80;;
4309;SDS011;2168;53.576;9.980;2024-03-23T07:58:17;2.17;;;2.17;;
4309;SDS011;2168;53.576;9.980;2024-03-23T08:00:42;1.40;;;1.40;;
4309;SDS011;2168;53.576;9.980;2024-03-23T08:03:07;1.77;;;1.77;;
4309;SDS011;2168;53.576;9.980;2024-03-23T08:05:32;1.40;;;1.40;;
4309;SDS011;2168;53.576;9.980;2024-03-23T08:07:59;2.20;;;2.20;;
4309;SDS011;2168;53.576;9.980;2024-03-23T08:10:24;1.70;;;1.70;;
4309;SDS011;2168;53.576;9.980;2024-03-23T08:12:49;2.10;;;2.10;;
4309;SDS011;2168;53.576;9.980;2024-03-23T08:15:14;2.30;;;2.30;;
4309;SDS011;2168;53.576;9.980;2024-03-23T08:17:39;2.20;;;2.20;;
4309;SDS011;2168;53.576;9.980;2024-03-23T08:20:05;2.10;;;2.10;;
4309;SDS011;2168;53.576;9.980;2024-03-23T08:22:30;2.50;;;2.50;;
4309;SDS011;2168;53.576;9.980;2024-03-23T08:24:55;2.37;;;2.37;;
4309;SDS011;2168;53.576;9.980;2024-03-23T08:27:21;1.87;;;1.87;;
4309;SDS011;2168;53.576;9.980;2024-03-23T08:29:46;2.13;;;2.13;;
4309;SDS011;2168;53.576;9.980;2024-03-23T08:32:11;1.80;;;1.80;;
4309;SDS011;2168;53.576;9.980;2024-03-23T08:34:37;2.73;;;2.73;;
4309;SDS011;2168;53.576;9.980;2024-03-23T08:37:02;3.30;;;3.30;;
4309;SDS011;2168;53.576;9.980;2024-03-23T08:39:27;2.03;;;2.03;;
4309;SDS011;2168;53.576;9.980;2024-03-23T08:41:53;2.10;;;2.10;;
4309;SDS011;2168;53.576;9.980;2024-03-23T08:44:18;2.17;;;2.17;;
4309;SDS011;2168;53.576;9.980;2024-03-23T08:46:43;1.60;;;1.60;;
4309;SDS011;2168;53.576;9.980;2024-03-23T08:49:08;2.50;;;2.50;;
4309;SDS011;2168;53.576;9.980;2024-03-23T08:51:34;2.03;;;2.03;;
4309;SDS011;2168;53.576;9.980;2024-03-23T08:53:59;2.40;;;2.40;;
4309;SDS011;2168;53.576;9.980;2024-03-23T08:56:24;2.27;;;2.27;;
4309;SDS011;2168;53.576;9.980;2024-03-23T08:58:49;1.60;;;1.60;;
4309;SDS011;2168;53.576;9.980;2024-03-23T09:01:15;2.17;;;2.17;;
4309;SDS011;2168;53.576;9.980;2024-03-23T09:03:40;2.10;;;2.10;;
4309;SDS011;2168;53.576;9.980;2024-03-23T09:06:09;2.67;;;2.67;;
4309;SDS011;2168;53.576;9.980;2024-03-23T09:08:35;2.27;;;2.27;;
4309;SDS011;2168;53.576;9.980;2024-03-23T09:11:05;2.10;;;2.10;;
4309;SDS011;2168;53.576;9.980;2024-03-23T09:13:34;7.60;;;7.40;;
4309;SDS011;2168;53.576;9.980;2024-03-23T09:15:59;2.40;;;2.40;;
4309;SDS011;2168;53.576;9.980;2024-03-23T09:18:25;2.00;;;2.00;;
4309;SDS011;2168;53.576;9.980;2024-03-23T09:20:50;2.10;;;2.10;;
4309;SDS011;2168;53.576;9.980;2024-03-23T09:23:15;2.13;;;2.13;;
4309;SDS011;2168;53.576;9.980;2024-03-23T09:25:41;2.00;;;2.00;;
4309;SDS011;2168;53.576;9.980;2024-03-23T09:28:06;1.87;;;1.87;;
4309;SDS011;2168;53.576;9.980;2024-03-23T09:30:33;1.90;;;1.90;;
4309;SDS011;2168;53.576;9.980;2024-03-23T09:32:58;1.50;;;1.50;;
4309;SDS011;2168;53.576;9.980;2024-03-23T09:35:24;1.70;;;1.70;;
4309;SDS011;2168;53.576;9.980;2024-03-23T09:37:49;4.93;;;4.90;;
4309;SDS011;2168;53.576;9.980;2024-03-23T09:40:14;3.83;;;3.83;;
4309;SDS011;2168;53.576;9.980;2024-03-23T09:42:40;1.80;;;1.80;;
4309;SDS011;2168;53.576;9.980;2024-03-23T09:45:12;2.80;;;2.80;;
4309;SDS011;2168;53.576;9.980;2024-03-23T09:47:41;1.70;;;1.70;;
4309;SDS011;2168;53.576;9.980;2024-03-23T09:50:07;2.10;;;2.10;;
4309;SDS011;2168;53.576;9.980;2024-03-23T09:52:32;2.03;;;2.03;;
4309;SDS011;2168;53.576;9.980;2024-03-23T09:54:58;1.90;;;1.90;;
4309;SDS011;2168;53.576;9.980;2024-03-23T09:57:23;1.90;;;1.90;;
4309;SDS011;2168;53.576;9.980;2024-03-23T09:59:48;1.60;;;1.60;;
4309;SDS011;2168;53.576;9.980;2024-03-23T10:02:15;1.80;;;1.80;;
4309;SDS011;2168;53.576;9.980;2024-03-23T10:04:42;1.60;;;1.60;;
4309;SDS011;2168;53.576;9.980;2024-03-23T10:07:15;1.60;;;1.60;;
4309;SDS011;2168;53.576;9.980;2024-03-23T10:09:42;1.10;;;1.10;;
4309;SDS011;2168;53.576;9.980;2024-03-23T10:12:08;1.00;;;1.00;;
4309;SDS011;2168;53.576;9.980;2024-03-23T10:14:33;1.23;;;1.23;;
4309;SDS011;2168;53.576;9.980;2024-03-23T10:17:11;1.47;;;1.47;;
4309;SDS011;2168;53.576;9.980;2024-03-23T10:19:38;1.73;;;1.73;;
4309;SDS011;2168;53.576;9.980;2024-03-23T10:22:04;2.00;;;2.00;;
4309;SDS011;2168;53.576;9.980;2024-03-23T10:24:29;1.90;;;1.90;;
4309;SDS011;2168;53.576;9.980;2024-03-23T10:26:57;2.00;;;2.00;;
4309;SDS011;2168;53.576;9.980;2024-03-23T10:29:22;1.97;;;1.97;;
4309;SDS011;2168;53.576;9.980;2024-03-23T10:31:48;1.47;;;1.47;;
4309;SDS011;2168;53.576;9.980;2024-03-23T10:34:14;1.77;;;1.77;;
4309;SDS011;2168;53.576;9.980;2024-03-23T10:36:40;1.70;;;1.70;;
4309;SDS011;2168;53.576;9.980;2024-03-23T10:39:06;2.97;;;2.97;;
4309;SDS011;2168;53.576;9.980;2024-03-23T10:41:32;1.70;;;1.70;;
4309;SDS011;2168;53.576;9.980;2024-03-23T10:43:58;1.70;;;1.70;;
4309;SDS011;2168;53.576;9.980;2024-03-23T10:46:25;1.70;;;1.70;;
4309;SDS011;2168;53.576;9.980;2024-03-23T10:48:50;1.50;;;1.50;;
4309;SDS011;2168;53.576;9.980;2024-03-23T10:51:16;1.60;;;1.60;;
4309;SDS011;2168;53.576;9.980;2024-03-23T10:53:41;1.77;;;1.77;;
4309;SDS011;2168;53.576;9.980;2024-03-23T10:56:07;2.20;;;2.20;;
4309;SDS011;2168;53.576;9.980;2024-03-23T10:58:44;1.50;;;1.50;;
4309;SDS011;2168;53.576;9.980;2024-03-23T11:01:10;1.33;;;1.33;;
4309;SDS011;2168;53.576;9.980;2024-03-23T11:03:37;1.63;;;1.63;;
4309;SDS011;2168;53.576;9.980;2024-03-23T11:06:04;1.33;;;1.33;;
4309;SDS011;2168;53.576;9.980;2024-03-23T11:08:30;1.50;;;1.50;;
4309;SDS011;2168;53.576;9.980;2024-03-23T11:11:11;1.97;;;1.97;;
4309;SDS011;2168;53.576;9.980;2024-03-23T11:13:37;2.90;;;2.90;;
4309;SDS011;2168;53.576;9.980;2024-03-23T11:16:15;2.57;;;2.57;;
4309;SDS011;2168;53.576;9.980;2024-03-23T11:18:41;1.83;;;1.83;;
4309;SDS011;2168;53.576;9.980;2024-03-23T11:21:07;2.40;;;2.40;;
4309;SDS011;2168;53.576;9.980;2024-03-23T11:23:33;3.43;;;3.43;;
4309;SDS011;2168;53.576;9.980;2024-03-23T11:25:59;1.90;;;1.90;;
4309;SDS011;2168;53.576;9.980;2024-03-23T11:28:25;2.87;;;2.87;;
4309;SDS011;2168;53.576;9.980;2024-03-23T11:30:50;2.30;;;2.30;;
4309;SDS011;2168;53.576;9.980;2024-03-23T11:33:16;2.27;;;2.27;;
4309;SDS011;2168;53.576;9.980;2024-03-23T11:35:41;1.80;;;1.80;;
4309;SDS011;2168;53.576;9.980;2024-03-23T11:40:38;2.50;;;2.50;;
4309;SDS011;2168;53.576;9.980;2024-03-23T11:43:04;2.70;;;2.70;;
4309;SDS011;2168;53.576;9.980;2024-03-23T11:45:33;1.50;;;1.50;;
4309;SDS011;2168;53.576;9.980;2024-03-23T11:48:16;1.50;;;1.50;;
4309;SDS011;2168;53.576;9.980;2024-03-23T11:50:45;1.60;;;1.60;;
4309;SDS011;2168;53.576;9.980;2024-03-23T11:53:20;1.60;;;1.60;;
4309;SDS011;2168;53.576;9.980;2024-03-23T11:55:49;1.40;;;1.40;;
4309;SDS011;2168;53.576;9.980;2024-03-23T11:58:16;1.20;;;1.20;;
4309;SDS011;2168;53.576;9.980;2024-03-23T12:00:41;1.80;;;1.80;;
4309;SDS011;2168;53.576;9.980;2024-03-23T12:03:07;1.60;;;1.60;;
4309;SDS011;2168;53.576;9.980;2024-03-23T12:05:33;1.30;;;1.30;;
4309;SDS011;2168;53.576;9.980;2024-03-23T12:10:47;1.00;;;1.00;;
4309;SDS011;2168;53.576;9.980;2024-03-23T12:13:20;1.17;;;1.17;;
4309;SDS011;2168;53.576;9.980;2024-03-23T12:15:50;1.40;;;1.40;;
4309;SDS011;2168;53.576;9.980;2024-03-23T12:18:16;0.90;;;0.90;;
4309;SDS011;2168;53.576;9.980;2024-03-23T12:20:41;0.90;;;0.90;;
4309;SDS011;2168;53.576;9.980;2024-03-23T12:23:11;1.20;;;1.20;;
4309;SDS011;2168;53.576;9.980;2024-03-23T12:25:36;0.90;;;0.90;;
4309;SDS011;2168;53.576;9.980;2024-03-23T12:28:02;0.97;;;0.97;;
4309;SDS011;2168;53.576;9.980;2024-03-23T12:30:27;0.80;;;0.80;;
4309;SDS011;2168;53.576;9.980;2024-03-23T12:32:53;1.03;;;1.03;;
4309;SDS011;2168;53.576;9.980;2024-03-23T12:35:18;1.00;;;1.00;;
4309;SDS011;2168;53.576;9.980;2024-03-23T12:37:43;2.20;;;2.20;;
4309;SDS011;2168;53.576;9.980;2024-03-23T12:40:09;0.80;;;0.80;;
4309;SDS011;2168;53.576;9.980;2024-03-23T12:42:34;0.87;;;0.87;;
4309;SDS011;2168;53.576;9.980;2024-03-23T12:44:59;1.10;;;1.10;;
4309;SDS011;2168;53.576;9.980;2024-03-23T12:47:25;0.60;;;0.60;;
4309;SDS011;2168;53.576;9.980;2024-03-23T12:49:50;0.40;;;0.40;;
4309;SDS011;2168;53.576;9.980;2024-03-23T12:52:17;0.40;;;0.40;;
4309;SDS011;2168;53.576;9.980;2024-03-23T12:54:42;0.40;;;0.40;;
4309;SDS011;2168;53.576;9.980;2024-03-23T12:57:07;0.30;;;0.30;;
4309;SDS011;2168;53.576;9.980;2024-03-23T12:59:32;0.30;;;0.30;;
4309;SDS011;2168;53.576;9.980;2024-03-23T13:02:00;0.30;;;0.30;;
4309;SDS011;2168;53.576;9.980;2024-03-23T13:04:25;0.50;;;0.50;;
4309;SDS011;2168;53.576;9.980;2024-03-23T13:06:50;0.47;;;0.47;;
4309;SDS011;2168;53.576;9.980;2024-03-23T13:09:16;0.43;;;0.43;;
4309;SDS011;2168;53.576;9.980;2024-03-23T13:11:42;0.60;;;0.60;;
4309;SDS011;2168;53.576;9.980;2024-03-23T13:14:07;0.50;;;0.50;;
4309;SDS011;2168;53.576;9.980;2024-03-23T13:16:32;0.40;;;0.40;;
4309;SDS011;2168;53.576;9.980;2024-03-23T13:18:58;0.40;;;0.40;;
4309;SDS011;2168;53.576;9.980;2024-03-23T13:21:23;0.50;;;0.50;;
4309;SDS011;2168;53.576;9.980;2024-03-23T13:23:48;0.40;;;0.40;;
4309;SDS011;2168;53.576;9.980;2024-03-23T13:26:15;0.40;;;0.40;;
4309;SDS011;2168;53.576;9.980;2024-03-23T13:28:40;0.43;;;0.43;;
4309;SDS011;2168;53.576;9.980;2024-03-23T13:31:06;0.60;;;0.60;;
4309;SDS011;2168;53.576;9.980;2024-03-23T13:33:33;0.40;;;0.40;;
4309;SDS011;2168;53.576;9.980;2024-03-23T13:35:58;0.40;;;0.40;;
4309;SDS011;2168;53.576;9.980;2024-03-23T13:38:24;0.40;;;0.40;;
4309;SDS011;2168;53.576;9.980;2024-03-23T13:40:53;0.40;;;0.40;;
4309;SDS011;2168;53.576;9.980;2024-03-23T13:43:18;0.50;;;0.50;;
4309;SDS011;2168;53.576;9.980;2024-03-23T13:45:44;0.80;;;0.80;;
4309;SDS011;2168;53.576;9.980;2024-03-23T13:48:09;0.80;;;0.80;;
4309;SDS011;2168;53.576;9.980;2024-03-23T13:50:34;0.40;;;0.40;;
4309;SDS011;2168;53.576;9.980;2024-03-23T13:53:00;0.60;;;0.60;;
4309;SDS011;2168;53.576;9.980;2024-03-23T13:55:25;0.53;;;0.53;;
4309;SDS011;2168;53.576;9.980;2024-03-23T13:57:50;0.60;;;0.60;;
4309;SDS011;2168;53.576;9.980;2024-03-23T14:00:16;0.43;;;0.43;;
4309;SDS011;2168;53.576;9.980;2024-03-23T14:02:41;0.57;;;0.57;;
4309;SDS011;2168;53.576;9.980;2024-03-23T14:05:06;0.93;;;0.93;;
4309;SDS011;2168;53.576;9.980;2024-03-23T14:07:31;0.50;;;0.50;;
4309;SDS011;2168;53.576;9.980;2024-03-23T14:10:02;0.50;;;0.50;;
4309;SDS011;2168;53.576;9.980;2024-03-23T14:12:27;0.60;;;0.60;;
4309;SDS011;2168;53.576;9.980;2024-03-23T14:14:52;0.70;;;0.70;;
4309;SDS011;2168;53.576;9.980;2024-03-23T14:17:17;0.80;;;0.80;;
4309;SDS011;2168;53.576;9.980;2024-03-23T14:19:43;0.90;;;0.90;;
4309;SDS011;2168;53.576;9.980;2024-03-23T14:22:09;0.60;;;0.60;;
4309;SDS011;2168;53.576;9.980;2024-03-23T14:24:34;1.20;;;1.20;;
4309;SDS011;2168;53.576;9.980;2024-03-23T14:26:59;0.70;;;0.70;;
4309;SDS011;2168;53.576;9.980;2024-03-23T14:29:28;0.80;;;0.80;;
4309;SDS011;2168;53.576;9.980;2024-03-23T14:31:53;0.80;;;0.80;;
4309;SDS011;2168;53.576;9.980;2024-03-23T14:34:18;0.60;;;0.60;;
4309;SDS011;2168;53.576;9.980;2024-03-23T14:36:44;0.60;;;0.60;;
4309;SDS011;2168;53.576;9.980;2024-03-23T14:39:09;0.50;;;0.50;;
4309;SDS011;2168;53.576;9.980;2024-03-23T14:41:34;0.60;;;0.60;;
4309;SDS011;2168;53.576;9.980;2024-03-23T14:44:00;0.60;;;0.60;;
4309;SDS011;2168;53.576;9.980;2024-03-23T14:46:25;0.40;;;0.40;;
4309;SDS011;2168;53.576;9.980;2024-03-23T14:48:50;0.80;;;0.80;;
4309;SDS011;2168;53.576;9.980;2024-03-23T14:51:16;0.60;;;0.60;;
4309;SDS011;2168;53.576;9.980;2024-03-23T14:53:44;0.93;;;0.93;;
4309;SDS011;2168;53.576;9.980;2024-03-23T14:56:10;0.50;;;0.50;;
4309;SDS011;2168;53.576;9.980;2024-03-23T14:58:40;0.40;;;0.40;;
4309;SDS011;2168;53.576;9.980;2024-03-23T15:01:06;0.40;;;0.40;;
4309;SDS011;2168;53.576;9.980;2024-03-23T15:03:35;0.57;;;0.57;;
4309;SDS011;2168;53.576;9.980;2024-03-23T15:06:00;0.50;;;0.50;;
4309;SDS011;2168;53.576;9.980;2024-03-23T15:08:26;0.47;;;0.47;;
4309;SDS011;2168;53.576;9.980;2024-03-23T15:10:53;0.37;;;0.37;;
4309;SDS011;2168;53.576;9.980;2024-03-23T15:13:18;0.50;;;0.50;;
4309;SDS011;2168;53.576;9.980;2024-03-23T15:15:44;0.60;;;0.60;;
4309;SDS011;2168;53.576;9.980;2024-03-23T15:18:13;0.60;;;0.60;;
4309;SDS011;2168;53.576;9.980;2024-03-23T15:20:39;0.50;;;0.50;;
4309;SDS011;2168;53.576;9.980;2024-03-23T15:23:05;0.57;;;0.57;;
4309;SDS011;2168;53.576;9.980;2024-03-23T15:25:30;0.50;;;0.50;;
4309;SDS011;2168;53.576;9.980;2024-03-23T15:27:56;0.60;;;0.60;;
4309;SDS011;2168;53.576;9.980;2024-03-23T15:30:23;0.50;;;0.50;;
4309;SDS011;2168;53.576;9.980;2024-03-23T15:32:48;0.50;;;0.50;;
4309;SDS011;2168;53.576;9.980;2024-03-23T15:35:13;0.60;;;0.60;;
4309;SDS011;2168;53.576;9.980;2024-03-23T15:37:38;0.50;;;0.50;;
4309;SDS011;2168;53.576;9.980;2024-03-23T15:40:04;0.50;;;0.50;;
4309;SDS011;2168;53.576;9.980;2024-03-23T15:42:30;0.50;;;0.50;;
4309;SDS011;2168;53.576;9.980;2024-03-23T15:44:55;0.40;;;0.40;;
4309;SDS011;2168;53.576;9.980;2024-03-23T15:47:21;0.50;;;0.50;;
4309;SDS011;2168;53.576;9.980;2024-03-23T15:49:46;0.50;;;0.50;;
4309;SDS011;2168;53.576;9.980;2024-03-23T15:52:11;0.40;;;0.40;;
4309;SDS011;2168;53.576;9.980;2024-03-23T15:54:37;0.50;;;0.50;;
4309;SDS011;2168;53.576;9.980;2024-03-23T15:57:02;0.40;;;0.40;;
4309;SDS011;2168;53.576;9.980;2024-03-23T15:59:27;0.60;;;0.60;;
4309;SDS011;2168;53.576;9.980;2024-03-23T16:01:52;0.40;;;0.40;;
4309;SDS011;2168;53.576;9.980;2024-03-23T16:04:18;0.53;;;0.53;;
4309;SDS011;2168;53.576;9.980;2024-03-23T16:06:43;0.50;;;0.50;;